Terminal Aerodrome Forecast
Issued by NWS

Home | Current Version | Previous Version | Text Only | Print | Product List | Glossary On
Versions: 1 2 3 4 5 6 7 8 9 10 11 12 13 14 15 16 17 18 19 20 21
000
FTUS43 KEAX 280251 AAA
TAFMKC
TAF AMD
KMKC 280251Z 2803/2824 VRB05KT P6SM VCTS BKN035CB
      TEMPO 2803/2805 27012G18KT -TSRA SCT030CB
     FM280900 17009KT P6SM VCSH BKN100
     FM281200 17007KT P6SM BKN025=

USA.gov is the U.S. government's official web portal to all federal, state and local government web resources and services.